Fultonham, New York
Current Conditions -  °F | °C
As of 11:15 PM on Sunday 25 Jan 2015 (Local Time) from KNY0 Reporting Station
Clear Clear  
Wind Chill: -5°   Ceiling: Unl
Heat Index:   Visibility: 10mi
Dew Point: -4°   Wind: 6mph
Humidity: 64%   Direction: 190°S
Pressure: 30.03"   Gusts: NA
Location:  42.57°N, 74.4°W
Report Text: KNY0 260415Z AUTO 19005KT 10SM CLR M15/M20 A3003 RMK AO2 T11461201
Loading
Personal Weather Stations






























Interactive Weather Map New forecast layout! Learn more

10-Day Weather Forecast

Advertisements
Track Severe Weather on mobile